Time;durP1;ratioP1;P1;durP2;ratioP2;P2;SDS_P1;SDS_P2;PMS_P1;PMS_P2;Temp;Humidity;BMP_temperature;BMP_pressure;BME280_temperature;BME280_humidity;BME280_pressure;Samples;Min_cycle;Max_cycle;Signal;HPM_P1;HPM_P2
2022/04/05 00:00:42;;;;;;;16.50;10.25;;;3.60;99.90;;;;;;4988149;28;20109;-84
2022/04/05 00:03:30;;;;;;;14.07;10.85;;;3.60;99.90;;;;;;4975089;28;20043;-83
2022/04/05 00:06:17;;;;;;;13.65;9.95;;;3.60;99.90;;;;;;4967869;28;20506;-86
2022/04/05 00:09:07;;;;;;;15.35;10.55;;;3.60;99.90;;;;;;4973742;28;20070;-84
2022/04/05 00:11:57;;;;;;;15.00;10.80;;;3.60;99.90;;;;;;4974360;28;20137;-85
2022/04/05 00:14:44;;;;;;;13.88;8.77;;;3.70;99.90;;;;;;4949703;28;20042;-88
2022/04/05 00:17:32;;;;;;;14.55;10.88;;;3.60;99.90;;;;;;4973242;28;20051;-85
2022/04/05 00:20:22;;;;;;;13.85;10.45;;;3.60;99.90;;;;;;4976334;28;20372;-84
2022/04/05 00:23:11;;;;;;;17.95;11.00;;;3.70;99.90;;;;;;4976398;28;20101;-85
2022/04/05 00:25:59;;;;;;;14.95;10.25;;;3.70;99.90;;;;;;4974204;28;20318;-88
2022/04/05 00:28:46;;;;;;;18.15;10.68;;;3.70;99.90;;;;;;4951868;28;20129;-87
2022/04/05 00:31:34;;;;;;;15.55;10.50;;;3.70;99.90;;;;;;4976075;28;20042;-87
2022/04/05 00:34:25;;;;;;;17.05;11.27;;;3.70;70.60;;;;;;4975028;28;20074;-89
2022/04/05 00:37:12;;;;;;;14.07;9.40;;;3.70;99.90;;;;;;4970737;28;20407;-87
2022/04/05 00:39:59;;;;;;;14.07;9.95;;;3.70;55.90;;;;;;4966844;28;20117;-87
2022/04/05 00:42:52;;;;;;;17.30;10.77;;;3.70;2.30;;;;;;4962198;28;20039;-85
2022/04/05 00:45:39;;;;;;;18.90;10.15;;;3.70;99.90;;;;;;4974405;28;20054;-87
2022/04/05 00:48:45;;;;;;;14.45;10.38;;;3.70;99.90;;;;;;4975598;28;20125;-86
2022/04/05 00:51:35;;;;;;;13.60;9.55;;;3.80;12.60;;;;;;4958135;28;20784;-88
2022/04/05 00:54:25;;;;;;;13.45;9.75;;;3.80;87.80;;;;;;4970800;28;20055;-86
2022/04/05 00:57:17;;;;;;;12.75;9.55;;;3.80;51.30;;;;;;4967746;28;20050;-90
2022/04/05 01:00:07;;;;;;;13.82;10.15;;;3.80;1.00;;;;;;4964460;28;20318;-87
2022/04/05 01:02:56;;;;;;;13.48;9.38;;;3.80;1.00;;;;;;4954996;28;20050;-90
2022/04/05 01:05:46;;;;;;;12.82;9.82;;;3.80;1.00;;;;;;4964785;28;20152;-89
2022/04/05 01:08:34;;;;;;;15.85;10.52;;;3.90;1.00;;;;;;4968038;28;20051;-90
2022/04/05 01:11:24;;;;;;;16.63;10.02;;;3.90;1.00;;;;;;4974906;28;20136;-87
2022/04/05 01:14:11;;;;;;;14.60;9.82;;;3.90;1.00;;;;;;4973216;28;20480;-86
2022/04/05 01:16:59;;;;;;;15.80;9.65;;;3.90;99.90;;;;;;4967175;28;20047;-88
2022/04/05 01:19:49;;;;;;;13.23;9.98;;;4.00;99.90;;;;;;4976585;28;20421;-90
2022/04/05 01:22:48;;;;;;;15.25;9.30;;;4.00;99.90;;;;;;4957915;28;20162;-85
2022/04/05 01:25:36;;;;;;;14.15;9.57;;;3.90;99.90;;;;;;4973743;28;20101;-85
2022/04/05 01:28:24;;;;;;;14.02;10.68;;;3.90;99.90;;;;;;4964973;28;20523;-84
2022/04/05 01:31:14;;;;;;;17.00;10.27;;;3.90;99.90;;;;;;4972614;28;20050;-86
2022/04/05 01:34:03;;;;;;;16.70;9.50;;;3.90;1.00;;;;;;4963201;28;20496;-87
2022/04/05 01:37:00;;;;;;;15.30;9.85;;;3.90;99.90;;;;;;4960201;28;20087;-86
2022/04/05 01:39:47;;;;;;;13.02;9.68;;;3.90;1.00;;;;;;4950429;28;20153;-86
2022/04/05 01:42:35;;;;;;;13.02;9.48;;;3.90;99.90;;;;;;4968179;28;20047;-87
2022/04/05 01:45:22;;;;;;;13.50;9.77;;;3.80;1.00;;;;;;4953480;28;20058;-85
2022/04/05 01:48:11;;;;;;;14.73;9.77;;;3.90;1.00;;;;;;4963371;28;20503;-85
2022/04/05 01:50:58;;;;;;;13.55;10.07;;;3.90;1.00;;;;;;4962058;28;20133;-86
2022/04/05 01:53:45;;;;;;;13.55;10.05;;;3.90;1.00;;;;;;4968181;28;20059;-86
2022/04/05 01:56:42;;;;;;;13.60;9.50;;;3.90;1.00;;;;;;4971623;28;20097;-86
2022/04/05 01:59:36;;;;;;;15.57;10.32;;;3.90;1.00;;;;;;4961876;28;20050;-86
2022/04/05 02:02:23;;;;;;;15.73;9.80;;;3.80;16.50;;;;;;4982660;28;20415;-85
2022/04/05 02:05:14;;;;;;;14.27;9.35;;;3.90;1.00;;;;;;4966376;28;20038;-88
2022/04/05 02:08:01;;;;;;;15.30;9.65;;;3.80;1.00;;;;;;4959101;28;20477;-86
2022/04/05 02:10:49;;;;;;;12.98;9.50;;;3.80;1.00;;;;;;4962094;28;20120;-86
2022/04/05 02:13:36;;;;;;;17.30;9.63;;;3.90;8.90;;;;;;4955401;28;20173;-84
2022/04/05 02:16:25;;;;;;;12.82;9.77;;;3.80;13.90;;;;;;4973993;28;20094;-87
2022/04/05 02:19:13;;;;;;;12.75;8.95;;;3.80;99.90;;;;;;4971848;28;20051;-87
2022/04/05 02:22:00;;;;;;;19.60;9.70;;;3.80;99.90;;;;;;4969349;28;20116;-85
2022/04/05 02:24:51;;;;;;;15.55;9.48;;;3.80;99.90;;;;;;4976610;28;20074;-86
2022/04/05 02:27:45;;;;;;;16.80;9.93;;;3.80;99.90;;;;;;4975003;28;20093;-85
2022/04/05 02:30:38;;;;;;;15.63;10.38;;;3.80;99.90;;;;;;4986968;28;20060;-86
2022/04/05 02:33:25;;;;;;;;;;;3.80;99.90;;;;;;4989085;28;20039;-86
2022/04/05 02:36:12;;;;;;;15.23;9.63;;;3.80;49.30;;;;;;4960623;28;19949;-87
2022/04/05 02:39:01;;;;;;;15.52;10.25;;;3.80;45.50;;;;;;4972625;28;20047;-85
2022/04/05 02:41:48;;;;;;;12.13;9.25;;;3.80;99.90;;;;;;4975223;28;20047;-86
2022/04/05 02:44:38;;;;;;;13.48;9.40;;;3.80;46.90;;;;;;4967935;28;20046;-89
2022/04/05 02:47:27;;;;;;;14.48;10.05;;;3.80;45.00;;;;;;4970463;28;20098;-83
2022/04/05 02:50:17;;;;;;;14.73;9.90;;;3.80;89.40;;;;;;4972846;28;20051;-84
2022/04/05 02:53:05;;;;;;;14.85;9.48;;;3.80;97.20;;;;;;4966348;28;20049;-84
2022/04/05 02:55:54;;;;;;;17.77;9.57;;;3.90;1.00;;;;;;4967689;28;20089;-85
2022/04/05 02:58:43;;;;;;;13.27;9.57;;;3.90;1.00;;;;;;4971257;28;20046;-89
2022/04/05 03:01:31;;;;;;;12.85;9.30;;;3.90;1.00;;;;;;4962019;28;20421;-85
2022/04/05 03:04:26;;;;;;;14.93;10.27;;;3.90;1.00;;;;;;4972021;28;20160;-87
2022/04/05 03:07:15;;;;;;;19.40;10.63;;;4.00;99.90;;;;;;4952546;28;20044;-85
2022/04/05 03:10:12;;;;;;;15.05;9.55;;;3.90;99.90;;;;;;4973357;28;20297;-84
2022/04/05 03:13:00;;;;;;;16.23;10.07;;;3.90;99.90;;;;;;4952233;28;20594;-86
2022/04/05 03:15:47;;;;;;;13.93;10.07;;;4.00;99.90;;;;;;4969368;28;20046;-85
2022/04/05 03:18:35;;;;;;;13.38;9.07;;;3.90;99.90;;;;;;4971873;28;20066;-88
2022/04/05 03:21:22;;;;;;;13.88;9.50;;;4.00;99.90;;;;;;4958242;28;20110;-85
2022/04/05 03:24:12;;;;;;;14.68;9.85;;;4.00;99.90;;;;;;4973253;28;20058;-90
2022/04/05 03:26:59;;;;;;;13.15;9.77;;;4.00;99.90;;;;;;4972428;28;20043;-87
2022/04/05 03:29:47;;;;;;;16.27;9.65;;;4.00;99.90;;;;;;4958797;28;20059;-85
2022/04/05 03:32:34;;;;;;;13.40;9.23;;;4.00;99.90;;;;;;4964309;28;20098;-86
2022/04/05 03:35:22;;;;;;;17.08;10.27;;;4.00;99.90;;;;;;4975566;28;20050;-86
2022/04/05 03:38:09;;;;;;;14.30;9.52;;;4.00;99.90;;;;;;4973804;28;20397;-87
2022/04/05 03:40:56;;;;;;;16.92;9.77;;;4.10;99.90;;;;;;4976402;28;20062;-86
2022/04/05 03:43:44;;;;;;;16.48;8.93;;;4.10;99.90;;;;;;4974274;28;20495;-87
2022/04/05 03:46:34;;;;;;;14.70;9.82;;;4.10;99.90;;;;;;4965288;28;20501;-85
2022/04/05 03:49:22;;;;;;;14.02;9.68;;;4.10;99.90;;;;;;4974459;28;20054;-88
2022/04/05 03:52:12;;;;;;;12.90;9.13;;;4.10;99.90;;;;;;4958856;28;20740;-84
2022/04/05 03:55:02;;;;;;;14.23;8.55;;;4.10;99.90;;;;;;4977168;28;20061;-86
2022/04/05 03:57:49;;;;;;;12.38;8.82;;;4.10;99.90;;;;;;4963055;28;20213;-87
2022/04/05 04:00:36;;;;;;;12.38;8.93;;;4.10;99.90;;;;;;4974587;28;20054;-87
2022/04/05 04:03:24;;;;;;;12.25;8.48;;;4.20;99.90;;;;;;4960004;28;20066;-83
2022/04/05 04:06:16;;;;;;;15.40;9.07;;;4.20;99.90;;;;;;4967089;28;20046;-88
2022/04/05 04:09:04;;;;;;;13.73;9.02;;;4.10;99.90;;;;;;4978580;28;20157;-86
2022/04/05 04:11:51;;;;;;;12.95;8.98;;;4.10;95.70;;;;;;4959340;28;20046;-88
2022/04/05 04:14:38;;;;;;;15.88;8.63;;;4.10;99.90;;;;;;4969248;28;20666;-86
2022/04/05 04:17:25;;;;;;;12.18;8.82;;;4.10;99.90;;;;;;4963344;28;20086;-85
2022/04/05 04:20:13;;;;;;;12.38;8.23;;;4.10;99.90;;;;;;4991314;28;20449;-87
2022/04/05 04:23:02;;;;;;;10.95;8.38;;;4.10;99.90;;;;;;4962828;28;20058;-86
2022/04/05 04:25:52;;;;;;;13.85;8.75;;;4.10;99.90;;;;;;4975671;28;20619;-86
2022/04/05 04:28:39;;;;;;;14.88;9.48;;;4.20;99.90;;;;;;4976909;28;20058;-84
2022/04/05 04:31:26;;;;;;;13.80;8.88;;;4.10;1.00;;;;;;4960170;28;20437;-86
2022/04/05 04:34:14;;;;;;;14.73;10.32;;;3.80;1.00;;;;;;4968766;28;20046;-87
2022/04/05 04:37:03;;;;;;;13.50;9.43;;;3.70;97.90;;;;;;4966200;28;20047;-85
2022/04/05 04:39:51;;;;;;;16.42;9.30;;;3.60;99.90;;;;;;4975550;28;20035;-88
2022/04/05 04:42:38;;;;;;;14.10;9.60;;;3.70;99.90;;;;;;4959492;28;20107;-87
2022/04/05 04:45:39;;;;;;;13.80;9.00;;;3.70;99.90;;;;;;4949191;28;20055;-85
2022/04/05 04:48:28;;;;;;;13.70;9.68;;;3.80;99.90;;;;;;4975987;28;20043;-87
2022/04/05 04:51:15;;;;;;;18.92;10.07;;;3.80;1.00;;;;;;4975645;28;20046;-87
2022/04/05 04:54:02;;;;;;;15.45;10.80;;;3.70;99.90;;;;;;4974151;28;20078;-85
2022/04/05 04:56:49;;;;;;;18.25;10.80;;;3.50;99.90;;;;;;4973532;28;20058;-87
2022/04/05 04:59:37;;;;;;;14.73;10.63;;;3.50;1.00;;;;;;4961076;28;20145;-88
2022/04/05 05:06:47;;;;;;;12.68;8.35;;;3.50;99.90;;;;;;4977469;28;20051;-85
2022/04/05 05:09:34;;;;;;;16.90;10.07;;;3.60;99.90;;;;;;4970647;28;20106;-85
2022/04/05 05:12:23;;;;;;;15.63;10.10;;;3.70;99.90;;;;;;4967736;28;20042;-85
2022/04/05 05:15:18;;;;;;;13.25;9.00;;;3.70;99.90;;;;;;4955040;28;20035;-87
2022/04/05 05:18:08;;;;;;;13.60;9.45;;;3.70;1.00;;;;;;4974872;28;20054;-85
2022/04/05 05:20:55;;;;;;;16.13;9.23;;;3.80;1.00;;;;;;4964646;28;20488;-85
2022/04/05 05:23:43;;;;;;;13.15;8.90;;;3.80;61.30;;;;;;4966604;28;20097;-87
2022/04/05 05:26:30;;;;;;;14.40;9.63;;;3.80;49.60;;;;;;4949288;28;20396;-88
2022/04/05 05:29:17;;;;;;;13.18;8.93;;;3.90;99.90;;;;;;4976889;28;20047;-85
2022/04/05 05:32:05;;;;;;;16.80;9.30;;;3.90;1.00;;;;;;4960928;28;20047;-85
2022/04/05 05:34:53;;;;;;;15.70;9.07;;;3.90;99.90;;;;;;4955623;29;20086;-88
2022/04/05 05:37:42;;;;;;;13.63;9.10;;;3.90;99.90;;;;;;4959151;28;20051;-85
2022/04/05 05:40:30;;;;;;;15.82;9.32;;;3.90;77.90;;;;;;4952763;28;20102;-86
2022/04/05 05:43:17;;;;;;;16.55;9.23;;;3.90;99.90;;;;;;4968281;28;20389;-85
2022/04/05 05:46:10;;;;;;;12.52;8.40;;;3.90;1.00;;;;;;4971558;28;20051;-87
2022/04/05 05:48:57;;;;;;;;;;;3.90;99.90;;;;;;4973377;28;20134;-88
2022/04/05 05:51:44;;;;;;;14.23;9.65;;;4.00;99.90;;;;;;4966522;28;20013;-88
2022/04/05 05:54:31;;;;;;;13.65;9.10;;;3.90;99.90;;;;;;4978229;28;20065;-88
2022/04/05 05:57:18;;;;;;;16.77;9.75;;;3.90;99.90;;;;;;4964658;28;20477;-86
2022/04/05 06:00:08;;;;;;;13.15;9.32;;;3.90;99.90;;;;;;4971314;28;20118;-87
2022/04/05 06:03:00;;;;;;;15.95;9.93;;;3.90;99.90;;;;;;4967523;28;20050;-83
2022/04/05 06:05:47;;;;;;;13.75;9.82;;;3.80;99.90;;;;;;4969286;28;20082;-85
2022/04/05 06:08:35;;;;;;;14.65;9.48;;;3.80;99.90;;;;;;4962700;28;20515;-85
2022/04/05 06:11:25;;;;;;;26.00;9.90;;;3.70;99.90;;;;;;4967407;28;20449;-86
2022/04/05 06:14:12;;;;;;;13.73;9.70;;;3.80;99.90;;;;;;4956602;28;20035;-83
2022/04/05 06:17:21;;;;;;;15.20;10.32;;;3.70;1.00;;;;;;4960172;28;20330;-82
2022/04/05 06:20:10;;;;;;;15.82;9.85;;;3.80;1.00;;;;;;4959315;28;20050;-85
2022/04/05 06:23:05;;;;;;;14.02;9.13;;;3.70;99.90;;;;;;4960502;28;20061;-88
2022/04/05 06:25:52;;;;;;;13.68;9.65;;;3.80;99.90;;;;;;4960966;28;20059;-86
2022/04/05 06:29:03;;;;;;;14.05;8.90;;;3.90;1.00;;;;;;4858776;29;20045;-87
2022/04/05 06:31:51;;;;;;;13.23;9.18;;;4.00;1.00;;;;;;4860965;29;20150;-86
2022/04/05 06:34:45;;;;;;;14.40;9.13;;;4.00;99.90;;;;;;4869408;29;20049;-88
2022/04/05 06:37:35;;;;;;;15.07;8.80;;;4.00;1.00;;;;;;4830190;29;20448;-85
2022/04/05 06:40:23;;;;;;;16.02;9.85;;;4.00;1.00;;;;;;4869828;29;20061;-87
2022/04/05 06:43:17;;;;;;;14.35;9.45;;;4.00;1.00;;;;;;4844689;29;20515;-87
2022/04/05 06:46:04;;;;;;;14.63;8.75;;;4.10;99.90;;;;;;4856908;29;21338;-85
2022/04/05 06:48:51;;;;;;;12.52;8.73;;;4.10;99.90;;;;;;4843191;29;20045;-87
2022/04/05 06:51:43;;;;;;;13.18;8.60;;;4.20;1.00;;;;;;4857667;29;20313;-88
2022/04/05 06:54:30;;;;;;;14.73;9.80;;;4.30;1.00;;;;;;4962469;28;20046;-84
2022/04/05 06:57:23;;;;;;;14.73;8.95;;;4.40;1.00;;;;;;4979194;28;20073;-87
2022/04/05 07:00:22;;;;;;;14.73;8.85;;;4.40;4.20;;;;;;4961893;28;20070;-85
2022/04/05 07:03:09;;;;;;;11.52;7.97;;;4.50;99.90;;;;;;4957545;28;20055;-87
2022/04/05 07:05:58;;;;;;;13.43;7.88;;;4.50;97.70;;;;;;4962275;28;20053;-91
2022/04/05 07:08:47;;;;;;;12.60;8.15;;;4.60;1.00;;;;;;4974662;28;20154;-88
2022/04/05 07:11:34;;;;;;;10.85;7.85;;;4.60;99.90;;;;;;4982876;28;20050;-88
2022/04/05 07:14:26;;;;;;;16.38;8.57;;;4.70;1.00;;;;;;4974610;28;20069;-84
2022/04/05 07:17:14;;;;;;;13.35;9.10;;;4.80;80.10;;;;;;4977775;28;20130;-91
2022/04/05 07:20:07;;;;;;;14.52;8.57;;;4.80;99.90;;;;;;4980249;28;20113;-86
2022/04/05 07:22:54;;;;;;;14.55;8.20;;;4.90;1.00;;;;;;4975514;28;20138;-84
2022/04/05 07:25:41;;;;;;;10.65;7.63;;;5.00;99.90;;;;;;4978842;28;20047;-84
2022/04/05 07:28:29;;;;;;;14.35;8.35;;;5.00;99.90;;;;;;4983958;28;20053;-82
2022/04/05 07:31:22;;;;;;;13.10;8.02;;;5.00;1.00;;;;;;4972703;28;20047;-89
2022/04/05 07:34:12;;;;;;;13.63;8.10;;;5.20;1.00;;;;;;4966905;28;20569;-88
2022/04/05 07:37:02;;;;;;;11.80;7.60;;;5.20;99.90;;;;;;4982482;28;20062;-88
2022/04/05 07:39:49;;;;;;;16.33;8.30;;;5.30;99.90;;;;;;4961328;28;20079;-87
2022/04/05 07:42:50;;;;;;;13.18;7.68;;;5.40;99.90;;;;;;4963059;28;20133;-84
2022/04/05 07:45:41;;;;;;;13.02;7.47;;;5.50;1.00;;;;;;4967399;28;20125;-87
2022/04/05 07:48:29;;;;;;;11.20;7.57;;;5.50;1.00;;;;;;4974052;28;20136;-89
2022/04/05 07:51:17;;;;;;;12.38;7.68;;;5.60;57.10;;;;;;4964160;28;20059;-88
2022/04/05 07:54:07;;;;;;;13.05;7.60;;;5.80;99.90;;;;;;4979912;28;20051;-83
2022/04/05 07:56:55;;;;;;;11.15;7.78;;;6.00;99.90;;;;;;4984494;28;20062;-86
2022/04/05 07:59:42;;;;;;;11.88;7.57;;;6.00;99.90;;;;;;4966769;28;20050;-88
2022/04/05 08:02:29;;;;;;;12.70;7.72;;;6.00;99.90;;;;;;4981086;28;20050;-84
2022/04/05 08:05:28;;;;;;;9.30;7.50;;;5.90;99.90;;;;;;4964826;28;20042;-85
2022/04/05 08:08:16;;;;;;;16.20;7.85;;;5.80;99.90;;;;;;4981335;28;20465;-83
2022/04/05 08:11:23;;;;;;;14.38;7.50;;;6.00;99.90;;;;;;4978739;28;20051;-84
2022/04/05 08:14:13;;;;;;;11.68;7.10;;;6.10;99.90;;;;;;4980764;28;20047;-83
2022/04/05 08:17:03;;;;;;;13.23;7.72;;;6.20;99.90;;;;;;4964111;28;20056;-85
2022/04/05 08:19:50;;;;;;;10.88;7.35;;;6.30;99.90;;;;;;4963330;28;20066;-86
2022/04/05 08:22:38;;;;;;;12.95;7.53;;;6.40;99.90;;;;;;4980222;28;20047;-87
2022/04/05 08:25:35;;;;;;;7.90;5.55;;;6.50;61.90;;;;;;4981630;28;20046;-85
2022/04/05 08:28:24;;;;;;;14.88;7.50;;;6.50;99.90;;;;;;4983678;28;20043;-88
2022/04/05 08:31:20;;;;;;;26.10;7.40;;;6.30;1.00;;;;;;4990788;28;20023;-85
2022/04/05 08:34:12;;;;;;;13.18;7.40;;;6.30;1.00;;;;;;4992365;28;20054;-86
2022/04/05 08:37:02;;;;;;;14.23;7.68;;;6.30;99.90;;;;;;4962672;28;20197;-89
2022/04/05 08:39:57;;;;;;;10.05;7.15;;;6.20;99.90;;;;;;4972884;28;20898;-84
2022/04/05 08:42:51;;;;;;;14.88;7.90;;;6.20;99.90;;;;;;4965563;28;20039;-90
2022/04/05 08:45:45;;;;;;;11.98;7.60;;;6.30;99.90;;;;;;4973048;28;20058;-89
2022/04/05 08:48:35;;;;;;;11.18;7.40;;;6.30;1.00;;;;;;4976029;28;20169;-85
2022/04/05 08:51:22;;;;;;;12.52;8.13;;;6.30;99.90;;;;;;4973911;28;20054;-86
2022/04/05 08:54:10;;;;;;;13.60;6.72;;;6.30;1.00;;;;;;4963261;28;20681;-86
2022/04/05 08:56:57;;;;;;;11.35;7.13;;;6.40;1.00;;;;;;4973196;28;20049;-88
2022/04/05 08:59:45;;;;;;;10.65;6.85;;;6.40;1.00;;;;;;4972002;28;20059;-85
2022/04/05 09:02:34;;;;;;;9.82;6.82;;;6.40;1.00;;;;;;4978632;28;20054;-86
2022/04/05 09:05:36;;;;;;;10.85;7.47;;;6.40;6.80;;;;;;4955242;28;20051;-87
2022/04/05 09:08:31;;;;;;;12.10;7.30;;;6.50;1.00;;;;;;4976037;28;20208;-84
2022/04/05 09:11:21;;;;;;;12.57;7.45;;;6.40;62.50;;;;;;4965160;28;20193;-84
2022/04/05 09:14:09;;;;;;;12.88;7.07;;;6.50;1.00;;;;;;4966501;28;20045;-86
2022/04/05 09:17:08;;;;;;;11.45;7.30;;;6.60;1.00;;;;;;4969532;28;20057;-82
2022/04/05 09:20:04;;;;;;;10.98;7.18;;;6.60;99.90;;;;;;4981917;28;20043;-85
2022/04/05 09:22:54;;;;;;;10.93;6.60;;;6.50;99.90;;;;;;4961226;28;20047;-84
2022/04/05 09:26:13;;;;;;;9.80;6.70;;;6.60;99.90;;;;;;4968703;28;20051;-89
2022/04/05 09:29:07;;;;;;;14.95;7.88;;;6.50;1.00;;;;;;4960482;28;20393;-84
2022/04/05 09:31:57;;;;;;;14.88;8.13;;;6.50;1.00;;;;;;4977143;28;20046;-81
2022/04/05 09:34:51;;;;;;;13.73;8.05;;;6.50;1.00;;;;;;4961420;28;20063;-83
2022/04/05 09:37:39;;;;;;;12.27;6.97;;;6.50;99.90;;;;;;4974811;28;20050;-84
2022/04/05 09:40:32;;;;;;;12.68;7.07;;;6.40;99.90;;;;;;4977152;28;20129;-83
2022/04/05 09:43:51;;;;;;;9.88;6.88;;;6.50;99.90;;;;;;4976239;28;20058;-85
2022/04/05 09:46:40;;;;;;;12.13;7.38;;;6.60;99.90;;;;;;4972882;28;20560;-84
2022/04/05 09:49:39;;;;;;;9.43;6.80;;;6.60;99.90;;;;;;4974030;28;20054;-84
2022/04/05 09:52:31;;;;;;;9.18;6.50;;;6.60;99.90;;;;;;4987412;28;20055;-83
2022/04/05 09:55:25;;;;;;;11.63;7.43;;;6.70;99.90;;;;;;4971433;28;20074;-84
2022/04/05 09:58:13;;;;;;;13.38;7.60;;;6.90;1.00;;;;;;4977772;28;20082;-86
2022/04/05 10:01:07;;;;;;;12.75;6.93;;;7.00;99.90;;;;;;4984376;28;20061;-86
2022/04/05 10:04:15;;;;;;;11.25;7.43;;;7.00;95.10;;;;;;4961081;28;20043;-83
2022/04/05 10:07:04;;;;;;;10.32;7.05;;;7.10;99.90;;;;;;4971651;28;20105;-83
2022/04/05 10:09:52;;;;;;;10.50;7.10;;;7.30;67.90;;;;;;4979549;28;20047;-83
2022/04/05 10:12:40;;;;;;;10.02;6.40;;;7.40;1.00;;;;;;4962510;28;20125;-81
2022/04/05 10:15:28;;;;;;;11.18;6.88;;;7.20;1.00;;;;;;4975252;28;20038;-84
2022/04/05 10:18:21;;;;;;;10.95;7.20;;;7.30;99.90;;;;;;4963380;28;20046;-83
2022/04/05 10:21:11;;;;;;;10.18;6.53;;;7.30;99.90;;;;;;4987039;28;20053;-84
2022/04/05 10:23:58;;;;;;;11.25;6.45;;;7.40;1.00;;;;;;4976928;28;20046;-83
2022/04/05 10:26:50;;;;;;;9.30;6.57;;;7.50;99.90;;;;;;4977485;28;20057;-84
2022/04/05 10:29:42;;;;;;;8.17;6.37;;;7.60;99.90;;;;;;4976567;28;20046;-82
2022/04/05 10:32:49;;;;;;;9.93;6.23;;;7.70;99.90;;;;;;4972197;28;20161;-85
2022/04/05 10:35:47;;;;;;;10.65;6.32;;;7.70;1.00;;;;;;4959564;28;20377;-83
2022/04/05 10:38:42;;;;;;;11.70;6.55;;;7.80;1.00;;;;;;4977575;28;20051;-85
2022/04/05 10:41:32;;;;;;;9.73;6.55;;;7.90;99.90;;;;;;4960368;28;20047;-85
2022/04/05 10:44:27;;;;;;;11.85;6.72;;;7.80;99.90;;;;;;4967745;28;20070;-86
2022/04/05 10:47:17;;;;;;;10.18;6.10;;;7.80;99.90;;;;;;4966704;28;20125;-89
2022/04/05 10:50:24;;;;;;;11.23;5.90;;;7.90;21.90;;;;;;4977013;28;20055;-87
2022/04/05 10:53:21;;;;;;;12.18;6.43;;;7.80;1.00;;;;;;4982521;28;20044;-87
2022/04/05 10:56:10;;;;;;;8.90;5.80;;;7.80;1.00;;;;;;4981101;28;20047;-88
2022/04/05 10:59:05;;;;;;;8.05;5.50;;;7.90;99.90;;;;;;4983266;28;20051;-88
2022/04/05 11:01:54;;;;;;;7.45;5.70;;;8.10;99.90;;;;;;4958969;28;20683;-84
2022/04/05 11:04:42;;;;;;;10.05;6.20;;;8.20;99.90;;;;;;4979377;28;20043;-84
2022/04/05 11:07:59;;;;;;;9.10;5.80;;;8.00;99.90;;;;;;4977073;28;20094;-86
2022/04/05 11:10:54;;;;;;;10.95;6.53;;;8.10;99.90;;;;;;4965699;28;20051;-86
2022/04/05 11:13:44;;;;;;;12.65;6.75;;;8.00;1.00;;;;;;4978367;28;20506;-86
2022/04/05 11:16:37;;;;;;;11.35;7.20;;;8.00;1.00;;;;;;4961322;28;20512;-85
2022/04/05 11:19:28;;;;;;;9.93;6.78;;;8.00;99.90;;;;;;4975408;28;20145;-86
2022/04/05 11:22:37;;;;;;;11.32;6.30;;;7.80;99.90;;;;;;4963647;28;20070;-83
2022/04/05 11:25:29;;;;;;;10.68;6.68;;;7.60;99.90;;;;;;4956598;28;20466;-82
2022/04/05 11:28:21;;;;;;;9.30;7.00;;;7.50;4.40;;;;;;4975384;28;20078;-83
2022/04/05 11:31:10;;;;;;;10.40;7.00;;;7.50;1.00;;;;;;4959005;28;20088;-86
2022/04/05 11:34:23;;;;;;;10.43;6.95;;;7.50;13.90;;;;;;4981206;28;20375;-86
2022/04/05 11:37:14;;;;;;;13.10;8.38;;;7.30;99.90;;;;;;4966699;28;20122;-83
2022/04/05 11:40:10;;;;;;;9.35;6.80;;;7.30;5.80;;;;;;4958102;28;20074;-86
2022/04/05 11:43:06;;;;;;;13.32;7.45;;;7.30;99.90;;;;;;4965601;28;20086;-88
2022/04/05 11:45:56;;;;;;;10.00;6.87;;;7.30;99.90;;;;;;4958975;28;20040;-88
2022/04/05 11:48:49;;;;;;;15.10;7.90;;;7.40;1.00;;;;;;4977490;28;20050;-88
2022/04/05 11:51:45;;;;;;;9.38;6.88;;;7.50;67.40;;;;;;4965936;28;20483;-86
2022/04/05 11:56:00;;;;;;;11.15;6.15;;;7.70;99.90;;;;;;4962778;28;20058;-87
2022/04/05 11:57:45;;;;;;;12.90;7.07;;;7.60;99.90;;;;;;4978539;28;20497;-85
2022/04/05 12:00:49;;;;;;;12.75;7.07;;;7.80;99.90;;;;;;4966051;28;20051;-88
2022/04/05 12:04:05;;;;;;;13.52;7.22;;;7.90;99.90;;;;;;4978043;28;20062;-85
2022/04/05 12:07:01;;;;;;;10.85;6.93;;;8.20;1.00;;;;;;4970042;28;20094;-84
2022/04/05 12:09:50;;;;;;;9.50;7.00;;;8.20;99.90;;;;;;4978240;28;20066;-86
2022/04/05 12:12:39;;;;;;;11.18;6.38;;;8.10;99.90;;;;;;4970410;28;20054;-88
2022/04/05 12:15:33;;;;;;;13.18;6.78;;;8.10;99.90;;;;;;4976181;28;20091;-86
2022/04/05 12:18:23;;;;;;;11.88;7.03;;;8.10;1.00;;;;;;4959873;28;20054;-86
2022/04/05 12:21:13;;;;;;;11.30;7.20;;;8.00;1.00;;;;;;4977807;28;20051;-84
2022/04/05 12:24:01;;;;;;;9.98;6.90;;;7.80;1.00;;;;;;4981624;28;20053;-85
2022/04/05 12:26:49;;;;;;;8.93;6.43;;;7.80;1.00;;;;;;4973847;28;20046;-86
2022/04/05 12:29:40;;;;;;;11.38;7.35;;;7.90;99.90;;;;;;4961792;28;20448;-86
2022/04/05 12:32:35;;;;;;;10.43;7.13;;;8.00;99.90;;;;;;4955319;28;20058;-84
2022/04/05 12:35:23;;;;;;;11.75;6.95;;;7.90;99.90;;;;;;4976942;28;20050;-85
2022/04/05 12:38:17;;;;;;;15.50;7.03;;;7.90;99.90;;;;;;4972674;28;20050;-90
2022/04/05 12:41:14;;;;;;;9.77;6.53;;;8.00;99.90;;;;;;4959545;28;20330;-89
2022/04/05 12:44:11;;;;;;;10.02;6.40;;;8.10;99.90;;;;;;4964982;28;20674;-86
2022/04/05 12:47:09;;;;;;;11.43;5.90;;;8.20;95.20;;;;;;4977964;28;20133;-87
2022/04/05 12:50:04;;;;;;;7.72;5.75;;;8.40;99.90;;;;;;4981343;28;20070;-86
2022/04/05 12:53:00;;;;;;;11.25;6.03;;;8.50;1.00;;;;;;4960544;28;20047;-86
2022/04/05 12:56:00;;;;;;;10.15;6.63;;;8.50;99.90;;;;;;4973209;28;20520;-87
2022/04/05 12:58:50;;;;;;;10.25;6.43;;;8.50;1.00;;;;;;4977226;28;20056;-83
2022/04/05 13:01:38;;;;;;;7.20;5.45;;;8.50;1.00;;;;;;4974713;28;20392;-85
2022/04/05 13:04:25;;;;;;;9.73;5.45;;;8.70;99.90;;;;;;4980984;28;20066;-89
2022/04/05 13:07:17;;;;;;;7.80;5.72;;;8.80;99.90;;;;;;4962071;28;20302;-88
2022/04/05 13:10:11;;;;;;;8.10;5.68;;;8.60;99.90;;;;;;4976562;28;20049;-84
2022/04/05 13:13:22;;;;;;;9.20;6.55;;;8.70;99.90;;;;;;4975619;28;20446;-82
2022/04/05 13:16:15;;;;;;;10.15;5.88;;;8.80;99.90;;;;;;4969162;28;20051;-85
2022/04/05 13:19:21;;;;;;;12.70;6.05;;;8.90;68.30;;;;;;4963831;28;20101;-85
2022/04/05 13:22:17;;;;;;;12.73;5.20;;;9.20;1.00;;;;;;4973858;28;20050;-87
2022/04/05 13:25:04;;;;;;;8.07;4.93;;;9.40;99.90;;;;;;4977441;28;20043;-85
2022/04/05 13:28:00;;;;;;;10.20;5.15;;;9.40;99.90;;;;;;4955796;28;20046;-83
2022/04/05 13:30:50;;;;;;;9.52;4.97;;;9.30;99.90;;;;;;4963046;28;20038;-86
2022/04/05 13:33:41;;;;;;;8.02;4.72;;;9.20;99.90;;;;;;4960250;28;20039;-88
2022/04/05 13:36:29;;;;;;;6.18;4.90;;;9.00;99.90;;;;;;4961287;28;20062;-87
2022/04/05 13:39:17;;;;;;;7.38;5.47;;;8.90;99.90;;;;;;4971448;28;20090;-86
2022/04/05 13:42:08;;;;;;;7.05;5.25;;;8.70;99.90;;;;;;4963344;28;20386;-88
2022/04/05 13:44:59;;;;;;;8.57;5.25;;;8.50;1.00;;;;;;4971588;28;20504;-86
2022/04/05 13:47:46;;;;;;;8.38;5.10;;;8.50;99.90;;;;;;4974655;28;20046;-83
2022/04/05 13:50:40;;;;;;;6.40;5.32;;;8.40;99.90;;;;;;4974672;28;20098;-87
2022/04/05 13:53:30;;;;;;;6.43;4.80;;;8.40;99.90;;;;;;4961771;28;20089;-86
2022/04/05 13:56:22;;;;;;;9.77;5.70;;;8.40;99.90;;;;;;4970960;28;20109;-83
2022/04/05 13:59:11;;;;;;;8.10;5.30;;;8.40;87.00;;;;;;4976334;28;20058;-83
2022/04/05 14:02:00;;;;;;;7.72;5.35;;;8.30;1.00;;;;;;4964481;28;20058;-85
2022/04/05 14:04:48;;;;;;;8.75;4.95;;;8.30;1.00;;;;;;4966985;28;20152;-87
2022/04/05 14:07:38;;;;;;;10.07;5.30;;;8.30;1.00;;;;;;4974818;28;20696;-87
2022/04/05 14:10:26;;;;;;;9.32;5.95;;;8.30;99.90;;;;;;4966588;28;20383;-84
2022/04/05 14:13:38;;;;;;;7.93;5.80;;;8.30;1.00;;;;;;4971883;28;20198;-87
2022/04/05 14:16:25;;;;;;;9.57;5.97;;;8.30;1.00;;;;;;4974470;28;20086;-85
2022/04/05 14:19:14;;;;;;;10.65;5.85;;;8.30;1.00;;;;;;4976373;28;20066;-82
2022/04/05 14:22:04;;;;;;;10.05;5.93;;;8.20;1.00;;;;;;4972378;28;20098;-84
2022/04/05 14:24:52;;;;;;;10.70;6.28;;;8.30;47.70;;;;;;4969897;28;20349;-82
2022/04/05 14:27:40;;;;;;;7.78;6.35;;;8.30;99.90;;;;;;4969225;28;20067;-81
2022/04/05 14:30:28;;;;;;;9.82;6.13;;;8.30;69.40;;;;;;4969452;28;20043;-84
2022/04/05 14:33:15;;;;;;;12.13;6.60;;;8.20;99.90;;;;;;4971952;28;20054;-83
2022/04/05 14:36:04;;;;;;;7.55;5.90;;;8.20;99.90;;;;;;4959372;28;20118;-80
2022/04/05 14:38:51;;;;;;;11.85;6.97;;;8.20;99.90;;;;;;4973465;28;20043;-83
2022/04/05 14:41:40;;;;;;;16.52;10.63;;;8.30;99.90;;;;;;4962231;28;20165;-83
2022/04/05 14:44:28;;;;;;;11.80;8.35;;;8.30;99.90;;;;;;4978345;28;20406;-85
2022/04/05 14:47:16;;;;;;;7.40;5.65;;;8.30;99.90;;;;;;4972961;28;20051;-85
2022/04/05 14:50:04;;;;;;;10.80;7.60;;;8.30;97.60;;;;;;4977234;28;20069;-84
2022/04/05 14:52:52;;;;;;;13.77;7.22;;;8.30;99.90;;;;;;4978606;28;20050;-85
2022/04/05 14:55:41;;;;;;;12.13;7.03;;;8.30;99.90;;;;;;4965167;28;20046;-85
2022/04/05 14:58:29;;;;;;;8.30;6.78;;;8.20;99.90;;;;;;4978547;28;20364;-84